Terminal Aerodrome Forecast
Issued by NWS Grand Rapids, MI

Home | Current Version | Previous Version | Text Only | Print | Product List | Glossary On
Versions: 1 2 3 4 5 6 7 8 9 10 11 12 13
000
FTUS43 KGRR 300520
TAFGRR
TAF
KGRR 300520Z 3006/0106 14004KT P6SM SCT200
     FM301000 13003KT 4SM BR OVC015
     FM301200 15003KT P6SM VCSH BKN035
     FM301400 20007KT P6SM VCTS BKN035CB
     FM010000 29007KT P6SM VCSH BKN035=

USA.gov is the U.S. government's official web portal to all federal, state and local government web resources and services.